YM Initiative — A8HX4 — position and weather

sailwx.info

Track history (hours):
 
Tides and Currents Weather Stations Pressure Air Temp Water Temp Dewpoint Dewpoint Depression Visibility Wind Speed Wind Dir Waves Ship Positions

YM Initiative

Last reported at 2014-Dec-15 09:31 UTC. Time now 2014-Dec-19 04:41 UTC.
Position N 01°15' E 104°05'.

Length 173 m; draft 7.7 m.

Type: Cargo ship. MMSI: 635961368.

Date/timePositionNaut miles runAvg speedWind from/ knotsBaromVisibWave heightAir tempDewpointWater temp
2014-Dec-15 09:31N 01°15' E 104°05'1516.0
2014-Dec-15 08:33N 01°10' E 103°50'9114.7
2014-Dec-15 02:23N 01°47' E 102°27'1214.7
2014-Dec-15 01:32N 01°52' E 102°15'11 0.3
2014-Dec-13 11:23N 01°53' E 102°26'6 7.5
2014-Dec-13 10:33N 01°50' E 102°32'8 7.7
2014-Dec-13 09:32N 01°47' E 102°39'8 8.6
2014-Dec-13 08:34N 01°43' E 102°46'66 7.3
2014-Dec-12 23:33N 01°16' E 103°46'0 0.1
2014-Dec-12 22:29N 01°16' E 103°46'0 0.1
2014-Dec-12 21:29N 01°16' E 103°46'0 0.1
2014-Dec-12 20:29N 01°16' E 103°46'0 0.0
2014-Dec-12 19:29N 01°16' E 103°46'0 0.0
2014-Dec-12 18:29N 01°16' E 103°46'0 0.0
2014-Dec-12 17:26N 01°16' E 103°46'0 0.0
2014-Dec-12 16:29N 01°16' E 103°46'0 0.0
2014-Dec-12 15:29N 01°16' E 103°46'0 0.0
2014-Dec-12 14:29N 01°16' E 103°46'0 0.0
2014-Dec-12 13:23N 01°16' E 103°46'0 0.0
2014-Dec-12 12:29N 01°16' E 103°46'0 0.4
2014-Dec-12 11:33N 01°16' E 103°47'3 2.8
2014-Dec-12 10:33N 01°13' E 103°48'9 8.8
2014-Dec-12 09:33N 01°15' E 103°56'9 9.1
2014-Dec-12 08:32N 01°16' E 104°05'  
2014-Dec-07 07:32N 01°15' E 104°04'1515.7
2014-Dec-07 06:34N 01°12' E 103°48'5 4.7
2014-Dec-07 05:33N 01°17' E 103°47'0 0.0
2014-Dec-07 03:29N 01°17' E 103°47'0 0.0
2014-Dec-07 02:22N 01°17' E 103°47'0 0.0
2014-Dec-07 01:22N 01°17' E 103°47'0 0.0
2014-Dec-07 00:28N 01°17' E 103°47'0 0.0
2014-Dec-06 23:31N 01°17' E 103°47'0 0.0
2014-Dec-06 22:28N 01°17' E 103°47'0 0.0
2014-Dec-06 21:28N 01°17' E 103°47'0 0.0
2014-Dec-06 20:16N 01°17' E 103°47'0 0.0
2014-Dec-06 19:31N 01°17' E 103°47'0 0.0
2014-Dec-06 18:31N 01°17' E 103°47'0 0.0
2014-Dec-06 17:28N 01°17' E 103°47'0 0.0
2014-Dec-06 16:31N 01°17' E 103°47'0 0.0
2014-Dec-06 15:31N 01°17' E 103°47'0 0.2
2014-Dec-06 14:32N 01°16' E 103°47'1 0.5
2014-Dec-06 12:33N 01°17' E 103°46'0 0.0
2014-Dec-06 11:27N 01°17' E 103°46'0 0.0
2014-Dec-06 10:33N 01°17' E 103°46'0 0.0
2014-Dec-06 09:33N 01°17' E 103°46'0 0.0
2014-Dec-06 08:33N 01°17' E 103°46'1 1.2
2014-Dec-06 07:34N 01°17' E 103°45'3 2.9
2014-Dec-06 06:34N 01°15' E 103°47'8 7.9
2014-Dec-06 05:34N 01°14' E 103°54'7 7.2
2014-Dec-06 04:33N 01°16' E 104°01'1010.4
2014-Dec-06 03:33N 01°17' E 104°12'  
Track history (hours):
 
Tides and Currents Weather Stations Pressure Air Temp Water Temp Dewpoint Dewpoint Depression Visibility Wind Speed Wind Dir Waves Ship Positions

YM Initiative

Last reported at 2014-Dec-15 09:31 UTC. Time now 2014-Dec-19 04:41 UTC.
Position N 01°15' E 104°05'.

Length 173 m; draft 7.7 m.

Type: Cargo ship. MMSI: 635961368.

Date/timePositionNaut miles runAvg speedWind from/ knotsBaromVisibWave heightAir tempDewpointWater temp
2014-Dec-15 09:31N 01°15' E 104°05'1516.0
2014-Dec-15 08:33N 01°10' E 103°50'9114.7
2014-Dec-15 02:23N 01°47' E 102°27'1214.7
2014-Dec-15 01:32N 01°52' E 102°15'11 0.3
2014-Dec-13 11:23N 01°53' E 102°26'6 7.5
2014-Dec-13 10:33N 01°50' E 102°32'8 7.7
2014-Dec-13 09:32N 01°47' E 102°39'8 8.6
2014-Dec-13 08:34N 01°43' E 102°46'66 7.3
2014-Dec-12 23:33N 01°16' E 103°46'0 0.1
2014-Dec-12 22:29N 01°16' E 103°46'0 0.1
2014-Dec-12 21:29N 01°16' E 103°46'0 0.1
2014-Dec-12 20:29N 01°16' E 103°46'0 0.0
2014-Dec-12 19:29N 01°16' E 103°46'0 0.0
2014-Dec-12 18:29N 01°16' E 103°46'0 0.0
2014-Dec-12 17:26N 01°16' E 103°46'0 0.0
2014-Dec-12 16:29N 01°16' E 103°46'0 0.0
2014-Dec-12 15:29N 01°16' E 103°46'0 0.0
2014-Dec-12 14:29N 01°16' E 103°46'0 0.0
2014-Dec-12 13:23N 01°16' E 103°46'0 0.0
2014-Dec-12 12:29N 01°16' E 103°46'0 0.4
2014-Dec-12 11:33N 01°16' E 103°47'3 2.8
2014-Dec-12 10:33N 01°13' E 103°48'9 8.8
2014-Dec-12 09:33N 01°15' E 103°56'9 9.1
2014-Dec-12 08:32N 01°16' E 104°05'  
2014-Dec-07 07:32N 01°15' E 104°04'1515.7
2014-Dec-07 06:34N 01°12' E 103°48'5 4.7
2014-Dec-07 05:33N 01°17' E 103°47'0 0.0
2014-Dec-07 03:29N 01°17' E 103°47'0 0.0
2014-Dec-07 02:22N 01°17' E 103°47'0 0.0
2014-Dec-07 01:22N 01°17' E 103°47'0 0.0
2014-Dec-07 00:28N 01°17' E 103°47'0 0.0
2014-Dec-06 23:31N 01°17' E 103°47'0 0.0
2014-Dec-06 22:28N 01°17' E 103°47'0 0.0
2014-Dec-06 21:28N 01°17' E 103°47'0 0.0
2014-Dec-06 20:16N 01°17' E 103°47'0 0.0
2014-Dec-06 19:31N 01°17' E 103°47'0 0.0
2014-Dec-06 18:31N 01°17' E 103°47'0 0.0
2014-Dec-06 17:28N 01°17' E 103°47'0 0.0
2014-Dec-06 16:31N 01°17' E 103°47'0 0.0
2014-Dec-06 15:31N 01°17' E 103°47'0 0.2
2014-Dec-06 14:32N 01°16' E 103°47'1 0.5
2014-Dec-06 12:33N 01°17' E 103°46'0 0.0
2014-Dec-06 11:27N 01°17' E 103°46'0 0.0
2014-Dec-06 10:33N 01°17' E 103°46'0 0.0
2014-Dec-06 09:33N 01°17' E 103°46'0 0.0
2014-Dec-06 08:33N 01°17' E 103°46'1 1.2
2014-Dec-06 07:34N 01°17' E 103°45'3 2.9
2014-Dec-06 06:34N 01°15' E 103°47'8 7.9
2014-Dec-06 05:34N 01°14' E 103°54'7 7.2
2014-Dec-06 04:33N 01°16' E 104°01'1010.4
2014-Dec-06 03:33N 01°17' E 104°12'  

Dump ship's entire track history